Tucson, AZ (85745)

6:38 AM MST on February 01, 2015 (GMT -0700)
Painted Hills Ranch | Change Station
CLOSE
Current Station
Personal Weather Station
Location: Tucson, AZ
Elevation: 2421 ft
Nearby Weather Stations
Active Advisory: Dense Fog Advisory

Elev 2421 ft 32.25 °N, 111.03 °W | Updated 2 seconds ago

Overcast
Overcast
47.4 °F
Feels Like 47 °F
N
1.0
Wind Variable Wind from WSW
Gusts 2.0 mph

Today
High -- | Low -- °F
--% Chance of Precip.
Yesterday
High -- | Low -- °F
Precip. -- in
7:18 AM 5:57 PM
Waxing Gibbous, 95% visible
Pressure 30.03 in
Visibility 1.0 miles
Clouds
Windchill 47 °F
Dew Point 46 °F
Humidity 96%
Rainfall 0.04 in
Snow Depth Not available.
UV Not available.
Pollen .50 out of 12
Air Quality Not available.
Flu Activity Not available.
SPECI KDMA 011333Z AUTO 00000KT 1SM R12/2000FT BR VV003 09/09 A3003 RMK AO2 VIS 1V4 $

More Conditions Fewer Conditions

Pressure 30.03 in
Visibility 1.0 miles
Clouds
Windchill 47 °F
Dew Point 46 °F
Humidity 96%
Rainfall 0.04 in
Snow Depth Not available.
UV Not available.
Pollen .50 out of 12
Air Quality Not available.
Flu Activity Not available.
SPECI KDMA 011333Z AUTO 00000KT 1SM R12/2000FT BR VV003 09/09 A3003 RMK AO2 VIS 1V4 $

More Conditions Fewer Conditions

10-Day Weather Forecast

Almanac

Astronomy

Feb. 01, 2015 Rise Set
Actual Time
Civil Twilight
Nautical Twilight
Astronomical Twilight
Moon
Length of Visible Light
Length of Day
Tomorrow will be .
, % of the Moon is Illuminated

Today's Extremes

State Highs State Lows

Community

WunderPhotos

Upload Photos

1,792,361 photos uploaded!

WunderBlogs® & News

Nearby

Air Quality

  Air Quality AQ Index Pollutant
Not available.

Snow Depth

Station Depth Elevation

Earthquake Activity

City Distance Mag. Time & Date
Minimum magnitude displayed is 2.5.

Coastal Water Temperatures

Place Temperature

Nearby Weather Stations